Time;durP1;ratioP1;P1;durP2;ratioP2;P2;SDS_P1;SDS_P2;PMS_P1;PMS_P2;Temp;Humidity;BMP_temperature;BMP_pressure;BME280_temperature;BME280_humidity;BME280_pressure;Samples;Min_cycle;Max_cycle;Signal;HPM_P1;HPM_P2
2022/12/04 00:01:39;;;;;;;1.52;1.52;;;1.70;99.90;;;;;;5028964;28;20479;-77
2022/12/04 00:04:05;;;;;;;1.40;1.40;;;1.70;99.90;;;;;;5037517;28;20026;-77
2022/12/04 00:06:32;;;;;;;1.35;1.35;;;1.70;99.90;;;;;;5028050;28;20041;-78
2022/12/04 00:08:59;;;;;;;1.70;1.70;;;1.70;99.90;;;;;;5032837;28;20017;-77
2022/12/04 00:11:28;;;;;;;1.63;1.63;;;1.70;99.90;;;;;;5029785;28;20033;-77
2022/12/04 00:13:54;;;;;;;1.65;1.65;;;1.70;99.90;;;;;;5032694;28;20026;-77
2022/12/04 00:16:22;;;;;;;1.30;1.30;;;1.70;99.90;;;;;;5028435;28;20029;-78
2022/12/04 00:18:48;;;;;;;1.40;1.40;;;1.80;99.90;;;;;;5024293;28;20030;-78
2022/12/04 00:21:15;;;;;;;1.20;1.20;;;1.70;99.90;;;;;;5038168;28;20032;-78
2022/12/04 00:23:42;;;;;;;3.28;2.97;;;1.80;99.90;;;;;;5032054;28;20064;-77
2022/12/04 00:26:14;;;;;;;1.67;1.67;;;1.70;99.90;;;;;;5030151;28;20033;-78
2022/12/04 00:28:40;;;;;;;4.40;4.10;;;1.60;99.90;;;;;;5024287;28;20025;-78
2022/12/04 00:31:19;;;;;;;1.80;1.70;;;1.70;99.90;;;;;;5025977;28;20084;-78
2022/12/04 00:33:45;;;;;;;1.60;1.60;;;1.60;99.90;;;;;;5036307;28;20022;-78
2022/12/04 00:36:13;;;;;;;1.45;1.45;;;1.60;99.90;;;;;;5025618;28;20034;-78
2022/12/04 00:38:39;;;;;;;1.40;1.40;;;1.60;99.90;;;;;;5037927;28;20407;-77
2022/12/04 00:41:07;;;;;;;1.92;1.88;;;1.60;99.90;;;;;;5031024;28;20022;-77
2022/12/04 00:43:33;;;;;;;1.80;1.80;;;1.70;99.90;;;;;;5018725;28;20063;-76
2022/12/04 00:45:58;;;;;;;1.67;1.67;;;1.70;99.90;;;;;;5029668;28;20025;-75
2022/12/04 00:48:24;;;;;;;1.88;1.88;;;1.70;99.90;;;;;;5017794;28;20061;-75
2022/12/04 00:50:49;;;;;;;1.50;1.50;;;1.70;99.90;;;;;;5017112;28;20037;-78
2022/12/04 00:53:15;;;;;;;3.13;2.92;;;1.70;99.90;;;;;;5024454;28;20029;-77
2022/12/04 00:55:41;;;;;;;1.30;1.30;;;1.70;99.90;;;;;;5014843;28;20045;-77
2022/12/04 00:58:08;;;;;;;1.52;1.52;;;1.70;99.90;;;;;;5034141;28;20495;-77
2022/12/04 01:00:39;;;;;;;1.52;1.52;;;1.60;99.90;;;;;;5018075;28;20029;-75
2022/12/04 01:03:05;;;;;;;6.65;6.00;;;1.70;99.90;;;;;;5022435;28;20022;-77
2022/12/04 01:05:31;;;;;;;1.40;1.40;;;1.70;99.90;;;;;;5025473;28;20030;-75
2022/12/04 01:07:57;;;;;;;1.65;1.60;;;1.70;99.90;;;;;;5019136;28;20091;-76
2022/12/04 01:10:23;;;;;;;1.55;1.55;;;1.70;99.90;;;;;;5018397;28;20034;-76
2022/12/04 01:12:50;;;;;;;1.65;1.65;;;1.70;99.90;;;;;;5023284;28;20546;-76
2022/12/04 01:15:16;;;;;;;2.67;2.53;;;1.70;99.90;;;;;;5025569;28;20025;-76
2022/12/04 01:17:42;;;;;;;1.50;1.50;;;2.10;99.90;;;;;;5022662;28;20112;-76
2022/12/04 01:20:08;;;;;;;1.40;1.40;;;1.80;99.90;;;;;;5026428;28;20108;-76
2022/12/04 01:22:33;;;;;;;1.73;1.73;;;1.70;99.90;;;;;;5020380;28;20540;-76
2022/12/04 01:24:59;;;;;;;1.88;1.80;;;1.70;99.90;;;;;;5019543;28;20080;-77
2022/12/04 01:27:25;;;;;;;1.60;1.50;;;1.70;99.90;;;;;;5024527;28;20022;-76
2022/12/04 01:29:50;;;;;;;1.40;1.40;;;1.70;99.90;;;;;;5029842;28;20029;-77
2022/12/04 01:32:16;;;;;;;1.40;1.40;;;1.70;99.90;;;;;;5036373;28;20049;-78
2022/12/04 01:34:42;;;;;;;1.58;1.58;;;1.70;99.90;;;;;;5036180;28;20030;-77
2022/12/04 01:37:07;;;;;;;1.50;1.50;;;1.70;99.90;;;;;;5023196;28;20026;-78
2022/12/04 01:39:35;;;;;;;1.75;1.75;;;1.70;99.90;;;;;;5021500;28;20042;-77
2022/12/04 01:42:01;;;;;;;1.73;1.73;;;1.80;99.90;;;;;;5022476;28;20025;-77
2022/12/04 01:44:28;;;;;;;1.58;1.58;;;1.80;99.90;;;;;;5022678;28;20018;-77
2022/12/04 01:46:58;;;;;;;1.50;1.50;;;1.70;99.90;;;;;;5034887;28;20022;-77
2022/12/04 01:49:30;;;;;;;1.77;1.77;;;1.80;99.90;;;;;;5022389;28;20117;-77
2022/12/04 01:52:01;;;;;;;2.70;2.60;;;1.70;99.90;;;;;;5024620;28;20530;-76
2022/12/04 01:54:31;;;;;;;1.52;1.52;;;1.80;99.90;;;;;;5011848;28;20034;-77
2022/12/04 01:57:06;;;;;;;1.77;1.73;;;1.80;99.90;;;;;;5021945;28;20022;-77
2022/12/04 01:59:40;;;;;;;1.88;1.88;;;1.80;99.90;;;;;;5025512;28;20381;-77
2022/12/04 02:02:09;;;;;;;2.45;2.35;;;1.70;99.90;;;;;;5025803;28;20048;-77
2022/12/04 02:04:35;;;;;;;1.60;1.60;;;1.80;99.90;;;;;;5023419;28;20037;-77
2022/12/04 02:07:01;;;;;;;1.70;1.70;;;1.80;99.90;;;;;;5023852;28;20037;-78
2022/12/04 02:09:30;;;;;;;1.55;1.55;;;1.80;99.90;;;;;;5033682;28;20508;-78
2022/12/04 02:12:19;;;;;;;1.92;1.88;;;1.80;99.90;;;;;;5034853;28;20045;-77
2022/12/04 02:15:15;;;;;;;3.47;3.38;;;1.80;99.90;;;;;;5025947;28;20029;-77
2022/12/04 02:17:59;;;;;;;1.60;1.60;;;1.80;99.90;;;;;;5022667;28;20142;-76
2022/12/04 02:20:35;;;;;;;1.90;1.90;;;1.80;99.90;;;;;;5020792;28;20033;-76
2022/12/04 02:23:28;;;;;;;1.88;1.88;;;1.90;99.90;;;;;;5020935;28;20467;-76
2022/12/04 02:26:25;;;;;;;2.55;2.45;;;1.90;99.90;;;;;;5025404;28;20026;-77
2022/12/04 02:29:15;;;;;;;1.77;1.77;;;1.80;99.90;;;;;;5039935;28;20022;-79
2022/12/04 02:31:57;;;;;;;1.98;1.98;;;1.90;99.90;;;;;;5039617;28;20450;-77
2022/12/04 02:34:49;;;;;;;2.67;2.58;;;1.90;99.90;;;;;;5021991;28;20475;-77
2022/12/04 02:37:30;;;;;;;1.90;1.90;;;1.90;99.90;;;;;;5029466;28;20045;-77
2022/12/04 02:40:02;;;;;;;1.67;1.67;;;1.90;99.90;;;;;;5019335;28;20064;-75
2022/12/04 02:42:37;;;;;;;2.00;2.00;;;1.80;99.90;;;;;;5022208;28;20022;-77
2022/12/04 02:45:08;;;;;;;1.97;1.97;;;1.90;99.90;;;;;;5032336;28;20022;-76
2022/12/04 02:47:37;;;;;;;1.70;1.70;;;2.20;99.90;;;;;;5020354;28;20319;-77
2022/12/04 02:50:08;;;;;;;1.90;1.90;;;2.00;99.90;;;;;;5024968;28;20022;-77
2022/12/04 02:52:59;;;;;;;1.85;1.85;;;2.00;99.90;;;;;;5026283;28;20387;-76
2022/12/04 02:55:42;;;;;;;2.17;2.17;;;1.90;99.90;;;;;;5025939;28;20044;-76
2022/12/04 02:58:17;;;;;;;3.13;2.15;;;1.90;99.90;;;;;;5036645;28;20117;-76
2022/12/04 03:00:45;;;;;;;2.27;2.23;;;2.00;99.90;;;;;;5031138;28;20472;-77
2022/12/04 03:03:20;;;;;;;1.88;1.88;;;1.90;99.90;;;;;;5023153;28;20033;-77
2022/12/04 03:05:59;;;;;;;1.75;1.75;;;1.90;99.90;;;;;;5029592;28;20064;-77
2022/12/04 03:08:33;;;;;;;1.90;1.90;;;2.00;99.90;;;;;;5025541;28;20026;-76
2022/12/04 03:11:00;;;;;;;2.28;2.20;;;1.90;99.90;;;;;;5020243;28;20476;-76
2022/12/04 03:13:30;;;;;;;1.90;1.90;;;1.90;99.90;;;;;;5020161;28;20479;-77
2022/12/04 03:16:12;;;;;;;1.77;1.77;;;2.00;99.90;;;;;;5033345;28;20497;-76
2022/12/04 03:18:42;;;;;;;2.03;2.03;;;2.00;99.90;;;;;;5018249;28;20053;-75
2022/12/04 03:21:20;;;;;;;2.47;2.38;;;2.00;99.90;;;;;;5022054;28;20029;-76
2022/12/04 03:24:22;;;;;;;1.60;1.60;;;2.00;99.90;;;;;;5031317;28;20025;-75
2022/12/04 03:27:11;;;;;;;1.73;1.73;;;2.00;99.90;;;;;;5028525;28;20488;-76
2022/12/04 03:29:51;;;;;;;2.53;2.42;;;2.00;99.90;;;;;;5025768;28;20046;-76
2022/12/04 03:32:41;;;;;;;3.85;3.45;;;2.00;99.90;;;;;;5021276;28;20027;-74
2022/12/04 03:35:12;;;;;;;7.20;6.55;;;2.00;99.90;;;;;;5037113;28;20033;-77
2022/12/04 03:37:49;;;;;;;1.85;1.85;;;2.00;99.90;;;;;;5042558;28;20410;-77
2022/12/04 03:40:25;;;;;;;1.70;1.70;;;2.10;99.90;;;;;;5028886;28;20048;-76
2022/12/04 03:42:59;;;;;;;2.33;2.22;;;2.10;99.90;;;;;;5036160;28;20049;-77
2022/12/04 03:45:39;;;;;;;1.73;1.73;;;2.10;99.90;;;;;;5030208;28;20091;-76
2022/12/04 03:48:12;;;;;;;1.95;1.95;;;2.10;99.90;;;;;;5033935;28;20076;-76
2022/12/04 03:50:45;;;;;;;1.73;1.73;;;2.10;99.90;;;;;;5033436;28;20014;-77
2022/12/04 03:53:16;;;;;;;1.63;1.63;;;2.10;99.90;;;;;;5031523;28;20022;-77
2022/12/04 03:55:57;;;;;;;2.50;2.40;;;2.10;99.90;;;;;;5037554;28;20028;-78
2022/12/04 03:58:28;;;;;;;2.15;2.13;;;2.10;99.90;;;;;;5034817;28;20120;-78
2022/12/04 04:00:56;;;;;;;2.50;2.40;;;2.10;99.90;;;;;;5021289;28;20028;-76
2022/12/04 04:03:28;;;;;;;1.83;1.83;;;2.00;99.90;;;;;;5024169;28;20399;-78
2022/12/04 04:06:00;;;;;;;2.30;2.22;;;2.00;99.90;;;;;;5028819;28;20034;-77
2022/12/04 04:08:32;;;;;;;2.58;2.47;;;2.00;99.90;;;;;;5025214;28;20502;-77
2022/12/04 04:11:06;;;;;;;2.13;2.03;;;2.00;99.90;;;;;;5022260;28;20025;-77
2022/12/04 04:24:46;;;;;;;2.25;2.15;;;2.10;99.90;;;;;;5024691;28;20033;-76
2022/12/04 04:27:12;;;;;;;2.50;2.40;;;2.10;99.90;;;;;;5018506;28;20172;-77
2022/12/04 04:29:38;;;;;;;1.80;1.80;;;2.10;99.90;;;;;;5032666;28;20087;-77
2022/12/04 04:32:24;;;;;;;2.38;2.22;;;2.00;99.90;;;;;;5018092;28;20116;-77
2022/12/04 04:35:18;;;;;;;1.80;1.80;;;2.00;99.90;;;;;;5018872;28;20041;-77
2022/12/04 04:37:58;;;;;;;2.25;2.15;;;2.10;99.90;;;;;;5016990;28;20092;-76
2022/12/04 04:40:40;;;;;;;2.10;2.10;;;2.10;99.90;;;;;;5022005;28;20443;-77
2022/12/04 04:43:21;;;;;;;3.15;3.05;;;2.10;99.90;;;;;;5040750;28;20096;-76
2022/12/04 04:45:55;;;;;;;1.98;1.98;;;2.10;99.90;;;;;;5025660;28;20025;-77
2022/12/04 04:48:26;;;;;;;2.67;2.58;;;2.10;99.90;;;;;;5035012;28;20022;-77
2022/12/04 04:50:53;;;;;;;2.50;2.40;;;2.20;99.90;;;;;;5034452;28;20052;-75
2022/12/04 04:53:23;;;;;;;2.30;2.20;;;2.10;99.90;;;;;;5019993;28;20029;-75
2022/12/04 04:55:49;;;;;;;1.95;1.95;;;2.10;99.90;;;;;;5029746;28;20014;-75
2022/12/04 04:58:18;;;;;;;3.33;3.13;;;2.20;99.90;;;;;;5020085;28;20040;-75
2022/12/04 05:01:06;;;;;;;3.10;2.90;;;2.20;99.90;;;;;;5018058;28;20349;-76
2022/12/04 05:03:32;;;;;;;2.70;2.60;;;2.10;99.90;;;;;;5020073;28;20484;-76
2022/12/04 05:05:57;;;;;;;2.08;2.08;;;2.10;99.90;;;;;;5029830;28;20152;-77
2022/12/04 05:08:23;;;;;;;3.05;2.60;;;2.10;99.90;;;;;;5019636;28;20026;-77
2022/12/04 05:10:49;;;;;;;2.40;2.30;;;2.20;99.90;;;;;;5023489;28;20033;-75
2022/12/04 05:13:15;;;;;;;2.97;2.83;;;2.20;99.90;;;;;;5024279;28;20024;-77
2022/12/04 05:15:41;;;;;;;2.33;2.22;;;2.10;99.90;;;;;;5020864;28;20534;-77
2022/12/04 05:18:08;;;;;;;2.00;2.00;;;2.10;99.90;;;;;;5033759;28;20021;-80
2022/12/04 05:20:36;;;;;;;2.55;2.45;;;2.10;99.90;;;;;;5015451;28;20538;-75
2022/12/04 05:23:02;;;;;;;2.00;2.00;;;2.10;99.90;;;;;;5012043;28;20030;-77
2022/12/04 05:25:28;;;;;;;2.17;2.13;;;2.10;99.90;;;;;;5017260;28;20079;-77
2022/12/04 05:27:53;;;;;;;2.50;2.40;;;2.20;99.90;;;;;;5018929;28;20101;-77
2022/12/04 05:30:19;;;;;;;2.25;2.17;;;2.10;99.90;;;;;;5030880;28;20045;-78
2022/12/04 05:32:45;;;;;;;1.90;1.90;;;2.10;99.90;;;;;;5031976;28;20021;-78
2022/12/04 05:35:11;;;;;;;2.00;2.00;;;2.10;99.90;;;;;;5024485;28;20116;-78
2022/12/04 05:37:37;;;;;;;2.38;2.28;;;2.20;99.90;;;;;;5021774;28;20776;-79
2022/12/04 05:40:04;;;;;;;2.38;2.28;;;2.20;99.90;;;;;;5031459;28;20400;-77
2022/12/04 05:42:30;;;;;;;2.35;2.25;;;2.20;99.90;;;;;;5032755;28;20119;-77
2022/12/04 05:44:55;;;;;;;2.40;2.30;;;2.20;99.90;;;;;;5030430;28;20017;-78
2022/12/04 05:47:21;;;;;;;2.45;2.35;;;2.20;99.90;;;;;;5020119;28;20030;-77
2022/12/04 05:49:47;;;;;;;2.25;2.15;;;2.20;99.90;;;;;;5030062;28;20038;-76
2022/12/04 05:52:12;;;;;;;1.95;1.95;;;2.20;99.90;;;;;;5027414;28;20036;-75
2022/12/04 05:54:39;;;;;;;2.80;2.60;;;2.20;99.90;;;;;;5020189;28;20029;-77
2022/12/04 05:57:04;;;;;;;3.28;3.17;;;2.10;99.90;;;;;;5034765;28;20025;-76
2022/12/04 05:59:30;;;;;;;2.28;2.17;;;2.20;99.90;;;;;;5022909;28;20026;-77
2022/12/04 06:01:55;;;;;;;2.10;2.10;;;2.20;99.90;;;;;;5036857;28;20479;-76
2022/12/04 06:04:21;;;;;;;2.55;2.45;;;2.20;99.90;;;;;;5023876;28;20033;-77
2022/12/04 06:06:47;;;;;;;2.20;2.13;;;2.10;99.90;;;;;;5024937;28;20022;-78
2022/12/04 06:09:12;;;;;;;2.25;2.17;;;2.20;99.90;;;;;;5038228;28;20037;-78
2022/12/04 06:11:40;;;;;;;2.30;2.20;;;2.10;99.90;;;;;;5024699;28;20057;-78
2022/12/04 06:14:09;;;;;;;2.30;2.20;;;2.10;99.90;;;;;;5025714;28;20032;-77
2022/12/04 06:16:37;;;;;;;2.10;2.08;;;2.10;99.90;;;;;;5038037;28;20061;-78
2022/12/04 06:19:15;;;;;;;2.35;2.25;;;2.10;99.90;;;;;;5023857;28;20030;-78
2022/12/04 06:21:42;;;;;;;2.65;2.55;;;2.10;99.90;;;;;;5024404;28;20731;-78
2022/12/04 06:24:12;;;;;;;2.22;2.15;;;2.10;99.90;;;;;;5026843;28;20033;-78
2022/12/04 06:26:38;;;;;;;2.60;2.50;;;2.10;99.90;;;;;;5031013;28;20499;-78
2022/12/04 06:29:03;;;;;;;2.20;2.15;;;2.10;99.90;;;;;;5027901;28;20037;-78
2022/12/04 06:31:29;;;;;;;2.50;2.40;;;2.10;99.90;;;;;;5024571;28;20025;-78
2022/12/04 06:33:56;;;;;;;2.20;2.13;;;2.00;99.90;;;;;;5038183;28;20021;-78
2022/12/04 06:36:23;;;;;;;2.30;2.20;;;2.10;99.90;;;;;;5024556;28;20034;-78
2022/12/04 06:38:50;;;;;;;2.80;2.70;;;2.10;99.90;;;;;;5026509;28;20511;-78
2022/12/04 06:41:19;;;;;;;2.30;2.20;;;2.10;99.90;;;;;;5030031;28;20142;-78
2022/12/04 06:43:44;;;;;;;2.42;2.33;;;2.10;99.90;;;;;;5027492;28;20422;-77
2022/12/04 06:46:14;;;;;;;2.83;2.72;;;2.10;99.90;;;;;;5027681;28;20025;-78
2022/12/04 06:48:40;;;;;;;2.55;2.45;;;2.10;99.90;;;;;;5035876;28;20024;-78
2022/12/04 06:51:11;;;;;;;2.58;2.47;;;2.10;99.90;;;;;;5022903;28;20025;-77
2022/12/04 06:53:37;;;;;;;2.00;2.00;;;2.10;99.90;;;;;;5034671;28;20049;-78
2022/12/04 06:56:06;;;;;;;3.88;3.58;;;2.20;99.90;;;;;;5033320;28;20056;-78
2022/12/04 06:58:32;;;;;;;2.90;2.80;;;2.20;99.90;;;;;;5035136;28;20051;-78
2022/12/04 07:00:58;;;;;;;2.03;2.03;;;2.10;99.90;;;;;;5022662;28;20659;-78
2022/12/04 07:03:24;;;;;;;2.95;2.85;;;2.10;99.90;;;;;;5024805;28;20112;-77
2022/12/04 07:05:50;;;;;;;2.30;2.20;;;2.20;99.90;;;;;;5028007;28;20105;-77
2022/12/04 07:08:16;;;;;;;1.90;1.90;;;2.10;99.90;;;;;;5016011;28;20143;-77
2022/12/04 07:10:42;;;;;;;3.58;3.28;;;2.20;99.90;;;;;;5032067;28;20075;-81
2022/12/04 07:13:09;;;;;;;2.83;2.72;;;2.20;99.90;;;;;;5023921;28;20112;-78
2022/12/04 07:15:36;;;;;;;4.90;4.70;;;2.20;99.90;;;;;;5028410;28;20044;-77
2022/12/04 07:18:02;;;;;;;2.45;2.35;;;2.20;99.90;;;;;;5016037;28;20037;-78
2022/12/04 07:20:27;;;;;;;2.85;2.75;;;2.20;99.90;;;;;;5037349;28;20045;-77
2022/12/04 07:22:53;;;;;;;4.82;4.63;;;2.20;99.90;;;;;;5022301;28;20053;-77
2022/12/04 07:25:19;;;;;;;2.70;2.60;;;2.30;99.90;;;;;;5022199;28;20052;-77
2022/12/04 07:27:44;;;;;;;2.55;2.45;;;2.20;99.90;;;;;;5038901;28;20025;-77
2022/12/04 07:30:10;;;;;;;3.78;3.58;;;2.30;99.90;;;;;;5038102;28;20025;-78
2022/12/04 07:32:36;;;;;;;2.35;2.25;;;2.30;99.90;;;;;;5038640;28;20032;-78
2022/12/04 07:35:03;;;;;;;2.38;2.28;;;2.30;99.90;;;;;;5041796;28;20029;-78
2022/12/04 07:37:29;;;;;;;2.38;2.28;;;2.30;99.90;;;;;;5028180;28;20092;-77
2022/12/04 07:39:54;;;;;;;2.13;2.03;;;2.40;99.90;;;;;;5033673;28;20121;-78
2022/12/04 07:42:20;;;;;;;2.38;2.25;;;2.40;99.90;;;;;;5022482;28;20022;-78
2022/12/04 07:44:46;;;;;;;2.17;2.10;;;2.30;99.90;;;;;;5018084;28;20085;-77
2022/12/04 07:47:12;;;;;;;2.97;2.88;;;2.30;99.90;;;;;;5028966;28;20025;-77
2022/12/04 07:49:37;;;;;;;3.42;3.33;;;2.30;99.90;;;;;;5022311;28;20476;-77
2022/12/04 07:52:03;;;;;;;2.38;2.30;;;2.30;99.90;;;;;;5035812;28;20117;-78
2022/12/04 07:54:28;;;;;;;2.95;2.85;;;2.30;99.90;;;;;;5039246;28;20021;-77
2022/12/04 07:56:54;;;;;;;2.40;2.30;;;2.40;99.90;;;;;;5036791;28;20026;-78
2022/12/04 07:59:20;;;;;;;2.92;2.83;;;2.40;99.90;;;;;;5030031;28;20101;-77
2022/12/04 08:01:45;;;;;;;3.45;3.30;;;2.40;99.90;;;;;;5026519;28;20022;-78
2022/12/04 08:04:11;;;;;;;5.38;5.07;;;2.40;99.90;;;;;;5021799;28;20060;-78
2022/12/04 08:06:38;;;;;;;2.40;2.30;;;2.40;99.90;;;;;;5024581;28;20069;-77
2022/12/04 08:09:04;;;;;;;1.98;1.98;;;2.40;99.90;;;;;;5022789;28;20507;-77
2022/12/04 08:11:30;;;;;;;2.75;2.65;;;2.40;99.90;;;;;;5036403;28;20083;-76
2022/12/04 08:13:57;;;;;;;3.20;3.05;;;2.40;99.90;;;;;;5022542;28;20030;-78
2022/12/04 08:16:23;;;;;;;2.88;2.58;;;2.40;99.90;;;;;;5022630;28;20026;-78
2022/12/04 08:18:50;;;;;;;2.03;2.03;;;2.50;99.90;;;;;;5029063;28;20102;-77
2022/12/04 08:21:19;;;;;;;2.65;2.55;;;2.50;99.90;;;;;;5030242;28;20153;-77
2022/12/04 08:23:46;;;;;;;3.13;3.03;;;2.60;99.90;;;;;;5033593;28;20495;-77
2022/12/04 08:26:11;;;;;;;2.10;2.00;;;2.60;99.90;;;;;;5017405;28;20115;-77
2022/12/04 08:28:38;;;;;;;2.35;2.25;;;2.60;99.90;;;;;;5029328;28;20391;-77
2022/12/04 08:31:20;;;;;;;2.70;2.58;;;2.60;99.90;;;;;;5026142;28;20387;-77
2022/12/04 08:33:47;;;;;;;2.50;2.40;;;2.80;99.90;;;;;;5024492;28;20022;-78
2022/12/04 08:36:16;;;;;;;2.50;2.40;;;2.80;99.90;;;;;;5037331;28;20472;-77
2022/12/04 08:38:42;;;;;;;2.17;2.10;;;2.90;99.90;;;;;;5036876;28;20056;-78
2022/12/04 08:41:11;;;;;;;2.70;2.60;;;3.00;99.90;;;;;;5035426;28;20480;-78
2022/12/04 08:43:37;;;;;;;2.33;2.22;;;3.10;99.90;;;;;;5016902;28;20109;-78
2022/12/04 08:46:06;;;;;;;2.40;2.30;;;3.10;99.90;;;;;;5031992;28;20495;-78
2022/12/04 08:48:32;;;;;;;2.80;2.70;;;3.20;99.90;;;;;;5027764;28;20109;-78
2022/12/04 08:50:58;;;;;;;2.40;2.20;;;3.30;99.90;;;;;;5029767;28;20025;-77
2022/12/04 08:53:24;;;;;;;2.78;2.58;;;3.30;99.90;;;;;;5017042;28;20048;-77
2022/12/04 08:55:50;;;;;;;2.30;2.20;;;3.30;99.90;;;;;;5019889;28;20083;-77
2022/12/04 08:58:17;;;;;;;2.70;2.60;;;3.50;99.90;;;;;;5028502;28;20025;-77
2022/12/04 09:00:43;;;;;;;2.00;2.00;;;3.40;99.90;;;;;;5030467;28;20820;-77
2022/12/04 09:03:14;;;;;;;2.75;2.65;;;3.50;99.90;;;;;;5036542;28;20079;-77
2022/12/04 09:05:40;;;;;;;2.28;2.17;;;3.50;99.90;;;;;;5033501;28;20506;-78
2022/12/04 09:08:06;;;;;;;3.70;3.55;;;3.40;99.90;;;;;;5025152;28;20420;-76
2022/12/04 09:10:34;;;;;;;2.15;2.13;;;3.50;99.90;;;;;;5031479;28;20088;-78
2022/12/04 09:13:00;;;;;;;2.95;2.75;;;3.50;99.90;;;;;;5031178;28;20029;-77
2022/12/04 09:15:26;;;;;;;2.13;2.10;;;3.50;99.90;;;;;;5039108;28;20433;-77
2022/12/04 09:17:51;;;;;;;2.17;2.13;;;3.40;99.90;;;;;;5031829;28;20030;-77
2022/12/04 09:20:17;;;;;;;2.22;2.15;;;3.50;99.90;;;;;;5035577;28;20121;-78
2022/12/04 09:22:42;;;;;;;2.83;2.72;;;3.50;99.90;;;;;;5032833;28;20017;-78
2022/12/04 09:25:10;;;;;;;2.45;2.35;;;3.50;99.90;;;;;;5031983;28;20033;-77
2022/12/04 09:27:37;;;;;;;2.45;2.35;;;3.40;99.90;;;;;;5043958;28;20028;-77
2022/12/04 09:30:04;;;;;;;2.60;2.50;;;3.40;99.90;;;;;;5030985;28;20562;-78
2022/12/04 09:32:30;;;;;;;2.45;2.35;;;3.50;99.90;;;;;;5030953;28;20022;-77
2022/12/04 09:34:55;;;;;;;2.40;2.33;;;3.50;99.90;;;;;;5049641;28;20036;-76
2022/12/04 09:37:21;;;;;;;2.47;2.38;;;3.60;99.90;;;;;;5027004;28;20112;-76
2022/12/04 09:39:46;;;;;;;2.55;2.45;;;3.60;99.90;;;;;;5024687;28;20404;-76
2022/12/04 09:42:11;;;;;;;2.70;2.60;;;3.50;99.90;;;;;;5018925;28;20368;-77
2022/12/04 09:45:02;;;;;;;3.63;3.42;;;3.60;99.90;;;;;;5027411;28;20024;-77
2022/12/04 09:47:33;;;;;;;2.63;2.53;;;3.60;99.90;;;;;;5026886;28;20029;-77
2022/12/04 09:50:18;;;;;;;2.50;2.40;;;3.60;99.90;;;;;;5040485;28;20387;-76
2022/12/04 09:52:55;;;;;;;3.75;3.35;;;3.80;99.90;;;;;;5055211;22;20128;-72
2022/12/04 09:55:34;;;;;;;2.65;2.55;;;3.60;99.90;;;;;;5063662;28;20016;-72
2022/12/04 09:58:02;;;;;;;2.55;2.45;;;3.60;99.90;;;;;;5041300;28;20091;-72
2022/12/04 10:00:29;;;;;;;3.13;2.85;;;3.60;99.90;;;;;;5051672;28;20041;-73
2022/12/04 10:03:00;;;;;;;3.15;3.05;;;3.60;99.90;;;;;;5021267;28;20395;-73
2022/12/04 10:05:45;;;;;;;2.63;2.53;;;3.70;99.90;;;;;;5021315;28;20034;-73
2022/12/04 10:08:29;;;;;;;2.42;2.33;;;3.80;99.90;;;;;;5024189;28;20100;-72
2022/12/04 10:11:21;;;;;;;2.40;2.30;;;3.90;99.90;;;;;;5039912;28;20108;-72
2022/12/04 10:14:09;;;;;;;2.20;2.15;;;4.00;99.90;;;;;;5007913;28;20037;-73
2022/12/04 10:17:03;;;;;;;1.88;1.88;;;4.20;99.90;;;;;;5041968;28;20079;-72
2022/12/04 10:19:51;;;;;;;2.00;2.00;;;4.30;99.90;;;;;;5029855;28;20042;-74
2022/12/04 10:22:39;;;;;;;2.08;2.08;;;4.30;99.90;;;;;;5033260;28;20042;-74
2022/12/04 10:25:14;;;;;;;1.70;1.70;;;4.30;99.90;;;;;;5048251;28;20021;-72
2022/12/04 10:27:46;;;;;;;4.35;3.28;;;4.20;99.90;;;;;;5034982;28;20478;-72
2022/12/04 10:30:44;;;;;;;2.10;2.10;;;4.10;99.90;;;;;;5043760;28;20025;-74
2022/12/04 10:33:15;;;;;;;2.53;2.42;;;4.00;99.90;;;;;;4964563;28;20124;-75
2022/12/04 10:35:43;;;;;;;2.38;2.28;;;4.00;99.90;;;;;;5041570;28;20082;-73
2022/12/04 10:38:32;;;;;;;2.08;2.05;;;4.30;99.90;;;;;;5034421;28;20510;-74
2022/12/04 10:41:19;;;;;;;2.03;1.95;;;4.30;99.90;;;;;;5025729;28;20490;-74
2022/12/04 10:43:47;;;;;;;2.70;2.60;;;4.20;99.90;;;;;;5037128;28;20022;-73
2022/12/04 10:46:15;;;;;;;1.73;1.73;;;4.30;99.90;;;;;;5040288;28;20109;-73
2022/12/04 10:48:44;;;;;;;1.92;1.92;;;4.30;99.90;;;;;;5043845;28;20037;-73
2022/12/04 10:51:16;;;;;;;2.63;2.47;;;4.40;99.90;;;;;;5020436;28;20475;-73
2022/12/04 10:53:43;;;;;;;2.95;2.85;;;4.30;99.90;;;;;;5033593;28;20124;-73
2022/12/04 10:56:13;;;;;;;2.92;2.83;;;4.50;99.90;;;;;;5015945;28;20025;-75
2022/12/04 10:58:39;;;;;;;3.28;3.08;;;4.60;99.90;;;;;;5015581;28;20450;-73
2022/12/04 11:01:11;;;;;;;1.95;1.95;;;4.50;99.90;;;;;;5035415;28;20558;-73
2022/12/04 11:03:38;;;;;;;2.60;2.50;;;4.30;99.90;;;;;;5033525;28;20022;-72
2022/12/04 11:06:08;;;;;;;1.77;1.77;;;4.50;99.90;;;;;;5020188;28;20029;-74
2022/12/04 11:08:42;;;;;;;2.58;2.38;;;4.40;99.90;;;;;;5032367;28;20029;-74
2022/12/04 11:11:11;;;;;;;1.85;1.85;;;4.50;99.90;;;;;;5033427;28;20026;-74
2022/12/04 11:13:38;;;;;;;1.75;1.75;;;4.40;99.90;;;;;;5019916;28;20029;-74
2022/12/04 11:16:05;;;;;;;3.25;3.05;;;4.40;99.90;;;;;;5007222;28;20113;-74
2022/12/04 11:18:33;;;;;;;2.58;2.42;;;4.30;99.90;;;;;;5008736;28;20031;-74
2022/12/04 11:21:13;;;;;;;1.50;1.50;;;4.40;99.90;;;;;;5046665;28;20520;-74
2022/12/04 11:23:47;;;;;;;2.05;2.05;;;4.40;99.90;;;;;;5033762;28;20032;-74
2022/12/04 11:26:13;;;;;;;1.80;1.80;;;4.30;99.90;;;;;;5041191;28;20029;-74
2022/12/04 11:28:52;;;;;;;1.80;1.80;;;4.40;99.90;;;;;;5038289;28;20490;-74
2022/12/04 11:31:21;;;;;;;1.40;1.40;;;4.60;99.90;;;;;;5040480;28;20034;-74
2022/12/04 11:33:54;;;;;;;1.98;1.88;;;4.50;99.90;;;;;;5023998;28;20017;-74
2022/12/04 11:36:33;;;;;;;3.30;3.10;;;4.40;99.90;;;;;;5042660;28;20508;-74
2022/12/04 11:39:16;;;;;;;3.08;2.97;;;4.50;99.90;;;;;;5022753;28;20511;-74
2022/12/04 11:41:41;;;;;;;1.70;1.70;;;4.50;99.90;;;;;;5037566;28;20104;-75
2022/12/04 11:44:28;;;;;;;1.88;1.77;;;4.40;99.90;;;;;;5040530;28;20104;-75
2022/12/04 11:46:55;;;;;;;1.58;1.58;;;4.50;99.90;;;;;;5003598;28;20120;-76
2022/12/04 11:49:22;;;;;;;1.60;1.60;;;4.40;99.90;;;;;;5013242;28;20033;-76
2022/12/04 11:52:13;;;;;;;1.60;1.60;;;4.50;99.90;;;;;;5021421;28;20449;-74
2022/12/04 11:54:54;;;;;;;1.50;1.50;;;4.40;99.90;;;;;;5031534;28;20041;-75
2022/12/04 11:57:20;;;;;;;1.65;1.65;;;4.60;99.90;;;;;;5000310;28;20407;-75
2022/12/04 12:00:21;;;;;;;1.52;1.52;;;4.70;99.90;;;;;;5020307;28;20025;-75
2022/12/04 12:03:05;;;;;;;1.20;1.20;;;4.90;99.90;;;;;;4926185;29;20485;-75
2022/12/04 12:05:40;;;;;;;1.90;1.80;;;5.00;99.90;;;;;;5009420;28;20037;-75
2022/12/04 12:08:16;;;;;;;1.30;1.30;;;5.00;99.90;;;;;;5032089;28;20446;-75
2022/12/04 12:10:48;;;;;;;1.20;1.20;;;4.90;99.90;;;;;;5048258;28;20018;-75
2022/12/04 12:13:29;;;;;;;1.42;1.42;;;5.00;99.90;;;;;;5023023;28;20509;-76
2022/12/04 12:16:03;;;;;;;1.40;1.40;;;5.00;99.90;;;;;;5013657;28;20017;-75
2022/12/04 12:19:07;;;;;;;1.30;1.30;;;5.10;99.90;;;;;;5031757;28;20371;-75
2022/12/04 12:22:10;;;;;;;1.65;1.65;;;5.10;99.90;;;;;;5031854;28;20427;-75
2022/12/04 12:24:52;;;;;;;2.42;2.33;;;5.10;99.90;;;;;;5028295;28;20029;-75
2022/12/04 12:27:26;;;;;;;1.42;1.40;;;5.10;99.90;;;;;;5039380;28;20029;-76
2022/12/04 12:30:18;;;;;;;2.28;2.17;;;5.10;99.90;;;;;;5017576;28;20082;-75
2022/12/04 12:32:58;;;;;;;1.55;1.55;;;5.10;99.90;;;;;;5029931;28;20040;-76
2022/12/04 12:35:38;;;;;;;1.50;1.50;;;5.10;99.90;;;;;;5019590;28;20029;-75
2022/12/04 12:38:26;;;;;;;1.70;1.60;;;5.20;99.90;;;;;;5016788;28;20032;-75
2022/12/04 12:41:04;;;;;;;1.40;1.40;;;5.20;99.90;;;;;;5023404;28;20033;-75
2022/12/04 12:43:34;;;;;;;1.27;1.27;;;5.20;99.90;;;;;;4996508;28;20432;-75
2022/12/04 12:46:16;;;;;;;2.63;2.53;;;5.20;99.90;;;;;;5025816;28;20021;-75
2022/12/04 12:48:56;;;;;;;2.97;2.85;;;5.20;99.90;;;;;;5021769;28;20021;-75
2022/12/04 12:51:40;;;;;;;1.40;1.40;;;5.10;99.90;;;;;;5025591;28;20120;-75
2022/12/04 12:54:31;;;;;;;1.38;1.38;;;5.10;99.90;;;;;;5019535;28;20033;-75
2022/12/04 12:57:26;;;;;;;1.80;1.80;;;5.10;99.90;;;;;;5038786;28;20052;-74
2022/12/04 13:00:01;;;;;;;1.45;1.45;;;5.00;99.90;;;;;;5021494;28;20376;-75
2022/12/04 13:02:31;;;;;;;1.50;1.50;;;5.00;99.90;;;;;;5031383;28;20402;-75
2022/12/04 13:05:02;;;;;;;1.63;1.63;;;5.00;99.90;;;;;;5028420;28;20076;-75
2022/12/04 13:07:42;;;;;;;1.50;1.50;;;5.00;99.90;;;;;;5029242;28;20487;-75
2022/12/04 13:10:29;;;;;;;1.65;1.65;;;5.00;99.90;;;;;;5030657;28;20134;-74
2022/12/04 13:13:25;;;;;;;1.67;1.63;;;4.90;99.90;;;;;;5020998;28;20108;-75
2022/12/04 13:16:15;;;;;;;2.17;2.08;;;4.90;99.90;;;;;;5000757;28;20120;-75
2022/12/04 13:18:46;;;;;;;2.72;2.53;;;4.90;99.90;;;;;;5028484;28;20380;-75
2022/12/04 13:21:27;;;;;;;1.55;1.55;;;4.90;99.90;;;;;;5021899;28;20021;-74
2022/12/04 13:24:27;;;;;;;1.30;1.30;;;5.00;99.90;;;;;;5025370;28;20097;-75
2022/12/04 13:27:05;;;;;;;1.60;1.60;;;4.90;99.90;;;;;;5023536;28;20116;-75
2022/12/04 13:30:01;;;;;;;1.50;1.50;;;5.00;99.90;;;;;;5018654;28;20036;-74
2022/12/04 13:32:45;;;;;;;1.30;1.30;;;5.00;99.90;;;;;;5020865;28;20108;-73
2022/12/04 13:35:20;;;;;;;1.77;1.77;;;4.90;99.90;;;;;;5030922;28;20037;-75